Rothschild, Wisconsin
Current Conditions -  °F | °C
As of 1:54 PM on Tuesday 21 Oct 2014 (Local Time) from KAUW Reporting Station
Scattered Clouds Scattered Clouds  
Wind Chill: 50°   Ceiling: Unl
Heat Index: 50°   Visibility: 10mi
Dew Point: 35°   Wind: 6mph
Humidity: 57%   Direction: 360°N
Pressure: 30.22"   Gusts: NA
Location:  44.89°N, 89.62°W
Report Text: KAUW 211854Z AUTO 36005KT 10SM SCT031 10/02 A3022 RMK AO2 SLP244 T01000017
Loading
Personal Weather Stations






























Interactive Weather Map
Tropical Storm Tracking
New forecast layout! Learn more

10-Day Weather Forecast

Advertisements
Track Severe Weather on mobile